createdAt,value
2019-03-28T00:01:57.872Z,7.00
2019-03-28T00:04:28.712Z,7.00
2019-03-28T00:06:58.946Z,7.00
2019-03-28T00:09:28.885Z,7.10
2019-03-28T00:11:59.120Z,7.10
2019-03-28T00:14:30.477Z,7.00
2019-03-28T00:17:01.033Z,7.10
2019-03-28T00:19:31.669Z,7.00
2019-03-28T00:22:05.454Z,7.10
2019-03-28T00:24:43.230Z,7.10
2019-03-28T00:27:14.455Z,7.00
2019-03-28T00:29:45.172Z,7.00
2019-03-28T00:32:16.126Z,7.00
2019-03-28T00:34:46.901Z,7.00
2019-03-28T00:37:17.493Z,7.00
2019-03-28T00:39:48.101Z,6.90
2019-03-28T00:42:18.754Z,7.00
2019-03-28T00:44:48.979Z,6.90
2019-03-28T00:47:18.834Z,7.00
2019-03-28T00:49:49.116Z,7.00
2019-03-28T00:52:19.601Z,7.00
2019-03-28T00:54:50.072Z,7.00
2019-03-28T00:57:20.445Z,6.90
2019-03-28T00:59:51.119Z,7.00
2019-03-28T01:02:21.738Z,7.00
2019-03-28T01:04:52.126Z,7.00
2019-03-28T01:07:22.677Z,7.00
2019-03-28T01:09:52.581Z,7.00
2019-03-28T01:12:23.224Z,7.00
2019-03-28T01:14:53.518Z,7.00
2019-03-28T01:17:24.204Z,7.00
2019-03-28T01:19:55.129Z,7.00
2019-03-28T01:22:25.306Z,6.90
2019-03-28T01:24:57.826Z,6.90
2019-03-28T01:27:27.443Z,6.90
2019-03-28T01:29:57.705Z,6.80
2019-03-28T01:32:28.451Z,6.90
2019-03-28T01:34:59.032Z,6.80
2019-03-28T01:37:29.600Z,6.80
2019-03-28T01:40:00.276Z,6.80
2019-03-28T01:42:31.120Z,6.80
2019-03-28T01:45:01.918Z,6.80
2019-03-28T01:47:32.236Z,6.80
2019-03-28T01:50:02.866Z,6.80
2019-03-28T01:52:32.702Z,6.80
2019-03-28T01:55:02.901Z,6.80
2019-03-28T01:57:33.061Z,6.90
2019-03-28T02:00:04.077Z,6.80
2019-03-28T02:02:34.632Z,6.80
2019-03-28T02:05:05.147Z,6.80
2019-03-28T02:07:35.423Z,6.80
2019-03-28T02:10:06.525Z,6.80
2019-03-28T02:12:37.128Z,6.80
2019-03-28T02:15:09.016Z,6.90
2019-03-28T02:17:39.329Z,6.90
2019-03-28T02:20:10.408Z,6.90
2019-03-28T02:22:40.749Z,7.00
2019-03-28T02:25:11.423Z,6.90
2019-03-28T02:27:42.059Z,6.90
2019-03-28T02:30:12.814Z,6.90
2019-03-28T02:32:43.093Z,6.90
2019-03-28T02:35:12.978Z,7.00
2019-03-28T02:37:43.461Z,6.90
2019-03-28T02:40:14.050Z,6.90
2019-03-28T02:42:44.939Z,7.00
2019-03-28T02:45:15.333Z,7.00
2019-03-28T02:47:46.073Z,6.90
2019-03-28T02:50:16.723Z,7.00
2019-03-28T02:52:47.468Z,7.00
2019-03-28T02:55:18.583Z,7.00
2019-03-28T02:57:48.442Z,6.90
2019-03-28T03:00:18.315Z,7.00
2019-03-28T03:02:48.839Z,7.00
2019-03-28T03:05:19.167Z,7.00
2019-03-28T03:07:49.626Z,7.00
2019-03-28T03:10:19.808Z,7.00
2019-03-28T03:12:49.693Z,7.00
2019-03-28T03:15:20.150Z,7.00
2019-03-28T03:17:50.378Z,7.00
2019-03-28T03:20:20.746Z,7.10
2019-03-28T03:22:50.777Z,7.10
2019-03-28T03:25:21.086Z,7.00
2019-03-28T03:27:58.399Z,7.10
2019-03-28T03:30:22.794Z,7.10
2019-03-28T03:32:53.386Z,7.00
2019-03-28T03:35:23.877Z,7.10
2019-03-28T03:37:55.879Z,7.10
2019-03-28T03:40:26.417Z,7.10
2019-03-28T03:42:57.372Z,7.10
2019-03-28T03:45:27.339Z,7.10
2019-03-28T03:47:57.657Z,7.10
2019-03-28T03:50:29.570Z,7.10
2019-03-28T03:53:00.051Z,7.10
2019-03-28T03:55:30.741Z,7.10
2019-03-28T03:58:14.195Z,7.10
2019-03-28T04:00:35.173Z,7.10
2019-03-28T04:03:05.564Z,7.10
2019-03-28T04:05:35.486Z,7.10
2019-03-28T04:08:07.369Z,7.10
2019-03-28T04:10:37.693Z,7.10
2019-03-28T04:13:07.935Z,7.10
2019-03-28T04:15:38.300Z,7.10
2019-03-28T04:18:08.308Z,7.10
2019-03-28T04:20:38.460Z,7.10
2019-03-28T04:23:09.126Z,7.10
2019-03-28T04:25:39.920Z,7.10
2019-03-28T04:28:10.714Z,7.10
2019-03-28T04:30:41.888Z,7.10
2019-03-28T04:33:12.418Z,7.20
2019-03-28T04:35:43.627Z,7.10
2019-03-28T04:38:14.125Z,7.10
2019-03-28T04:40:44.737Z,7.10
2019-03-28T04:43:15.214Z,7.10
2019-03-28T04:45:45.834Z,7.10
2019-03-28T04:48:16.672Z,7.10
2019-03-28T04:50:47.201Z,7.10
2019-03-28T04:53:17.421Z,7.10
2019-03-28T04:55:48.433Z,7.10
2019-03-28T04:58:21.560Z,7.10
2019-03-28T05:00:50.926Z,7.10
2019-03-28T05:03:21.489Z,7.10
2019-03-28T05:05:51.768Z,7.10
2019-03-28T05:08:22.567Z,7.10
2019-03-28T05:10:52.846Z,7.10
2019-03-28T05:13:22.734Z,7.10
2019-03-28T05:15:52.902Z,7.10
2019-03-28T05:18:23.439Z,7.10
2019-03-28T05:20:54.000Z,7.10
2019-03-28T05:23:24.303Z,7.20
2019-03-28T05:25:55.037Z,7.20
2019-03-28T05:28:25.512Z,7.20
2019-03-28T05:30:56.326Z,7.20
2019-03-28T05:33:26.529Z,7.20
2019-03-28T05:35:56.977Z,7.20
2019-03-28T05:38:28.290Z,7.20
2019-03-28T05:40:58.957Z,7.20
2019-03-28T05:43:30.218Z,7.20
2019-03-28T05:46:00.820Z,7.20
2019-03-28T05:48:31.200Z,7.30
2019-03-28T05:51:01.097Z,7.30
2019-03-28T05:53:31.412Z,7.30
2019-03-28T05:56:01.602Z,7.30
2019-03-28T05:58:32.317Z,7.40
2019-03-28T06:01:02.563Z,7.30
2019-03-28T06:03:33.121Z,7.40
2019-03-28T06:06:03.843Z,7.40
2019-03-28T06:08:34.079Z,7.50
2019-03-28T06:11:04.369Z,7.50
2019-03-28T06:13:34.713Z,7.70
2019-03-28T06:16:04.947Z,7.70
2019-03-28T06:18:35.670Z,7.70
2019-03-28T06:21:06.150Z,7.70
2019-03-28T06:23:36.289Z,7.80
2019-03-28T06:26:07.159Z,7.90
2019-03-28T06:28:37.663Z,7.90
2019-03-28T06:31:07.593Z,8.00
2019-03-28T06:33:38.553Z,8.00
2019-03-28T06:36:08.557Z,8.20
2019-03-28T06:38:39.430Z,8.30
2019-03-28T06:41:10.038Z,8.50
2019-03-28T06:43:42.067Z,8.20
2019-03-28T06:46:13.165Z,8.40
2019-03-28T06:48:43.107Z,8.20
2019-03-28T06:51:13.838Z,8.20
2019-03-28T06:53:44.179Z,8.50
2019-03-28T06:56:15.360Z,8.20
2019-03-28T06:58:45.293Z,8.30
2019-03-28T07:01:15.825Z,8.40
2019-03-28T07:03:47.509Z,8.40
2019-03-28T07:06:17.956Z,8.50
2019-03-28T07:08:47.844Z,8.50
2019-03-28T07:11:18.394Z,8.40
2019-03-28T07:13:48.387Z,8.50
2019-03-28T07:16:21.145Z,8.60
2019-03-28T07:18:50.741Z,8.60
2019-03-28T07:21:31.600Z,8.70
2019-03-28T07:24:01.883Z,8.80
2019-03-28T07:26:32.157Z,8.80
2019-03-28T07:29:02.847Z,8.80
2019-03-28T07:31:35.544Z,8.90
2019-03-28T07:34:05.840Z,9.10
2019-03-28T07:36:38.002Z,9.20
2019-03-28T07:39:09.693Z,9.30
2019-03-28T07:41:39.990Z,8.90
2019-03-28T07:44:10.515Z,9.00
2019-03-28T07:46:40.768Z,9.20
2019-03-28T07:49:10.688Z,9.10
2019-03-28T07:51:41.565Z,9.20
2019-03-28T07:54:12.065Z,9.40
2019-03-28T07:56:42.277Z,9.60
2019-03-28T07:59:12.665Z,9.60
2019-03-28T08:01:43.061Z,9.70
2019-03-28T08:04:14.461Z,9.80
2019-03-28T08:06:49.993Z,9.50
2019-03-28T08:09:17.838Z,9.40
2019-03-28T08:11:48.546Z,9.80
2019-03-28T08:14:18.783Z,9.60
2019-03-28T08:16:49.413Z,9.70
2019-03-28T08:19:19.434Z,9.60
2019-03-28T08:21:49.666Z,9.70
2019-03-28T08:24:20.541Z,9.90
2019-03-28T08:26:51.229Z,10.00
2019-03-28T08:29:22.317Z,10.00
2019-03-28T08:31:52.779Z,9.60
2019-03-28T08:34:23.667Z,9.60
2019-03-28T08:36:55.097Z,9.50
2019-03-28T08:39:26.117Z,9.60
2019-03-28T08:41:56.439Z,9.60
2019-03-28T08:44:26.558Z,9.70
2019-03-28T08:46:57.276Z,10.00
2019-03-28T08:49:27.885Z,10.10
2019-03-28T08:51:58.877Z,10.30
2019-03-28T08:54:30.298Z,10.40
2019-03-28T08:57:00.949Z,10.20
2019-03-28T08:59:31.803Z,10.10
2019-03-28T09:02:04.911Z,10.10
2019-03-28T09:04:34.421Z,10.00
2019-03-28T09:07:07.841Z,10.00
2019-03-28T09:09:39.206Z,10.00
2019-03-28T09:12:09.430Z,10.10
2019-03-28T09:14:40.052Z,10.10
2019-03-28T09:17:10.162Z,10.10
2019-03-28T09:19:42.674Z,10.10
2019-03-28T09:22:13.123Z,10.40
2019-03-28T09:24:43.850Z,10.40
2019-03-28T09:27:14.158Z,10.50
2019-03-28T09:29:45.381Z,10.30
2019-03-28T09:32:15.391Z,10.40
2019-03-28T09:34:45.691Z,10.40
2019-03-28T09:37:15.952Z,10.30
2019-03-28T09:39:45.934Z,10.50
2019-03-28T09:42:17.027Z,10.20
2019-03-28T09:44:47.368Z,10.70
2019-03-28T09:47:17.914Z,11.10
2019-03-28T09:49:48.148Z,11.30
2019-03-28T09:52:18.207Z,10.60
2019-03-28T09:54:49.402Z,10.60
2019-03-28T09:57:20.458Z,10.90
2019-03-28T09:59:51.287Z,10.80
2019-03-28T10:02:22.616Z,10.90
2019-03-28T10:04:53.301Z,10.80
2019-03-28T10:07:24.099Z,10.80
2019-03-28T10:09:55.352Z,10.30
2019-03-28T10:12:25.677Z,10.80
2019-03-28T10:14:56.513Z,11.00
2019-03-28T10:17:27.409Z,10.70
2019-03-28T10:19:59.034Z,10.60
2019-03-28T10:22:29.709Z,10.50
2019-03-28T10:25:00.293Z,10.30
2019-03-28T10:27:31.061Z,10.40
2019-03-28T10:30:01.852Z,10.90
2019-03-28T10:32:32.872Z,10.80
2019-03-28T10:35:06.711Z,10.80
2019-03-28T10:37:35.332Z,10.90
2019-03-28T10:40:06.741Z,11.00
2019-03-28T10:42:37.067Z,11.60
2019-03-28T10:45:08.224Z,11.60
2019-03-28T10:48:05.780Z,11.40
2019-03-28T10:50:41.665Z,11.10
2019-03-28T10:53:08.381Z,10.80
2019-03-28T10:55:38.760Z,11.20
2019-03-28T10:58:18.440Z,10.80
2019-03-28T11:00:42.004Z,10.90
2019-03-28T11:03:12.129Z,11.40
2019-03-28T11:05:42.421Z,11.20
2019-03-28T11:08:12.971Z,10.90
2019-03-28T11:10:44.005Z,11.30
2019-03-28T11:13:14.015Z,11.10
2019-03-28T11:15:44.231Z,11.40
2019-03-28T11:18:15.168Z,11.90
2019-03-28T11:20:46.190Z,12.10
2019-03-28T11:23:16.624Z,11.60
2019-03-28T11:25:47.273Z,11.50
2019-03-28T11:28:17.636Z,11.10
2019-03-28T11:30:47.622Z,11.40
2019-03-28T11:33:18.198Z,11.50
2019-03-28T11:35:48.485Z,11.50
2019-03-28T11:38:18.801Z,11.70
2019-03-28T11:40:50.061Z,12.00
2019-03-28T11:43:20.981Z,12.00
2019-03-28T11:45:51.446Z,12.20
2019-03-28T11:48:22.387Z,12.00
2019-03-28T11:50:52.738Z,11.40
2019-03-28T11:53:22.974Z,11.50
2019-03-28T11:55:53.484Z,11.30
2019-03-28T11:58:23.859Z,11.60
2019-03-28T12:00:54.464Z,11.70
2019-03-28T12:03:25.188Z,11.50
2019-03-28T12:05:55.141Z,11.10
2019-03-28T12:08:25.391Z,11.40
2019-03-28T12:10:56.510Z,12.00
2019-03-28T12:13:27.169Z,12.10
2019-03-28T12:16:00.115Z,12.30
2019-03-28T12:18:30.856Z,11.90
2019-03-28T12:21:01.126Z,12.40
2019-03-28T12:23:31.616Z,12.50
2019-03-28T12:26:02.026Z,12.30
2019-03-28T12:28:35.723Z,11.90
2019-03-28T12:31:06.292Z,11.70
2019-03-28T12:33:37.301Z,11.70
2019-03-28T12:36:09.623Z,11.30
2019-03-28T12:38:40.927Z,11.60
2019-03-28T12:41:11.234Z,11.90
2019-03-28T12:43:41.840Z,12.10
2019-03-28T12:46:11.813Z,11.80
2019-03-28T12:48:42.046Z,12.10
2019-03-28T12:51:12.674Z,11.90
2019-03-28T12:53:43.601Z,11.50
2019-03-28T12:56:14.238Z,11.50
2019-03-28T12:58:45.408Z,11.40
2019-03-28T13:01:15.850Z,11.20
2019-03-28T13:03:46.570Z,11.40
2019-03-28T13:06:17.703Z,11.60
2019-03-28T13:08:47.658Z,11.90
2019-03-28T13:11:17.548Z,11.70
2019-03-28T13:13:47.892Z,12.00
2019-03-28T13:16:17.858Z,12.20
2019-03-28T13:18:48.195Z,12.20
2019-03-28T13:21:19.375Z,12.40
2019-03-28T13:23:49.667Z,12.50
2019-03-28T13:26:19.679Z,12.30
2019-03-28T13:28:49.717Z,11.90
2019-03-28T13:31:19.997Z,11.90
2019-03-28T13:33:53.900Z,11.90
2019-03-28T13:36:24.625Z,11.70
2019-03-28T13:38:54.934Z,11.80
2019-03-28T13:41:24.970Z,12.00
2019-03-28T13:43:55.451Z,12.20
2019-03-28T13:46:26.067Z,12.30
2019-03-28T13:48:56.823Z,12.40
2019-03-28T13:51:27.253Z,12.30
2019-03-28T13:53:57.432Z,12.30
2019-03-28T13:56:29.519Z,12.30
2019-03-28T13:59:00.334Z,12.10
2019-03-28T14:01:31.262Z,12.30
2019-03-28T14:04:01.590Z,12.30
2019-03-28T14:06:32.058Z,12.00
2019-03-28T14:09:02.572Z,12.40
2019-03-28T14:11:32.562Z,12.30
2019-03-28T14:14:03.766Z,12.30
2019-03-28T14:16:34.422Z,12.40
2019-03-28T14:19:04.409Z,12.30
2019-03-28T14:21:35.463Z,12.50
2019-03-28T14:24:06.578Z,12.30
2019-03-28T14:26:37.686Z,12.30
2019-03-28T14:29:08.347Z,12.50
2019-03-28T14:31:38.719Z,12.40
2019-03-28T14:34:09.011Z,12.70
2019-03-28T14:36:40.080Z,12.60
2019-03-28T14:39:10.759Z,12.50
2019-03-28T14:41:42.034Z,12.50
2019-03-28T14:44:12.394Z,12.70
2019-03-28T14:46:43.026Z,12.80
2019-03-28T14:49:13.429Z,12.60
2019-03-28T14:51:43.805Z,12.30
2019-03-28T14:54:14.121Z,12.40
2019-03-28T14:56:44.530Z,12.40
2019-03-28T14:59:16.105Z,12.50
2019-03-28T15:01:46.308Z,12.70
2019-03-28T15:04:16.498Z,12.40
2019-03-28T15:06:46.941Z,12.50
2019-03-28T15:09:17.391Z,12.50
2019-03-28T15:11:47.682Z,12.40
2019-03-28T15:14:18.271Z,12.50
2019-03-28T15:16:48.991Z,12.40
2019-03-28T15:19:19.774Z,12.40
2019-03-28T15:21:50.475Z,12.60
2019-03-28T15:24:21.075Z,12.50
2019-03-28T15:26:52.188Z,12.40
2019-03-28T15:29:22.866Z,12.50
2019-03-28T15:31:53.339Z,12.50
2019-03-28T15:34:23.960Z,12.30
2019-03-28T15:37:02.325Z,12.30
2019-03-28T15:39:33.005Z,12.10
2019-03-28T15:42:03.101Z,12.30
2019-03-28T15:44:33.469Z,12.40
2019-03-28T15:47:03.758Z,12.40
2019-03-28T15:49:35.113Z,12.40
2019-03-28T15:52:05.279Z,12.20
2019-03-28T15:54:35.775Z,12.10
2019-03-28T15:57:06.800Z,12.10
2019-03-28T15:59:37.640Z,12.10
2019-03-28T16:02:08.550Z,12.00
2019-03-28T16:04:39.078Z,12.10
2019-03-28T16:07:09.330Z,12.10
2019-03-28T16:09:40.151Z,12.00
2019-03-28T16:12:12.294Z,12.10
2019-03-28T16:14:42.257Z,12.00
2019-03-28T16:17:13.042Z,12.30
2019-03-28T16:19:45.218Z,12.30
2019-03-28T16:22:15.768Z,12.10
2019-03-28T16:24:46.718Z,12.60
2019-03-28T16:27:17.317Z,13.00
2019-03-28T16:29:47.613Z,12.90
2019-03-28T16:32:18.307Z,12.70
2019-03-28T16:34:49.114Z,12.50
2019-03-28T16:37:19.753Z,12.50
2019-03-28T16:39:50.241Z,12.30
2019-03-28T16:42:21.276Z,12.40
2019-03-28T16:44:51.707Z,11.90
2019-03-28T16:47:22.280Z,11.90
2019-03-28T16:49:52.190Z,11.80
2019-03-28T16:52:22.531Z,11.80
2019-03-28T16:54:53.677Z,11.70
2019-03-28T16:57:24.353Z,11.60
2019-03-28T16:59:54.573Z,11.30
2019-03-28T17:02:24.964Z,11.00
2019-03-28T17:04:55.431Z,11.00
2019-03-28T17:07:26.722Z,11.00
2019-03-28T17:10:00.561Z,10.90
2019-03-28T17:12:31.189Z,10.90
2019-03-28T17:15:01.396Z,10.80
2019-03-28T17:17:32.117Z,10.90
2019-03-28T17:20:02.954Z,10.80
2019-03-28T17:22:32.950Z,10.80
2019-03-28T17:25:03.977Z,10.70
2019-03-28T17:27:34.080Z,10.70
2019-03-28T17:30:07.217Z,10.60
2019-03-28T17:32:37.048Z,10.60
2019-03-28T17:35:07.810Z,10.50
2019-03-28T17:37:37.720Z,10.60
2019-03-28T17:40:07.961Z,10.50
2019-03-28T17:42:38.745Z,10.40
2019-03-28T17:45:09.228Z,10.40
2019-03-28T17:47:40.385Z,10.60
2019-03-28T17:50:10.369Z,10.20
2019-03-28T17:52:41.098Z,10.10
2019-03-28T17:55:11.074Z,10.20
2019-03-28T17:57:42.064Z,10.20
2019-03-28T18:00:13.545Z,10.20
2019-03-28T18:02:43.542Z,10.10
2019-03-28T18:05:15.866Z,10.00
2019-03-28T18:07:45.793Z,10.00
2019-03-28T18:10:16.688Z,10.00
2019-03-28T18:12:46.884Z,9.80
2019-03-28T18:15:17.232Z,9.90
2019-03-28T18:17:47.416Z,9.90
2019-03-28T18:20:18.602Z,9.80
2019-03-28T18:22:48.584Z,9.80
2019-03-28T18:25:19.313Z,9.70
2019-03-28T18:27:50.220Z,9.70
2019-03-28T18:30:22.049Z,9.60
2019-03-28T18:32:52.577Z,9.60
2019-03-28T18:35:22.884Z,9.60
2019-03-28T18:37:53.910Z,9.50
2019-03-28T18:40:24.165Z,9.60
2019-03-28T18:42:55.028Z,9.60
2019-03-28T18:45:24.909Z,9.40
2019-03-28T18:47:55.948Z,9.50
2019-03-28T18:50:27.018Z,9.40
2019-03-28T18:52:57.008Z,9.50
2019-03-28T18:55:27.568Z,9.30
2019-03-28T18:57:58.583Z,9.20
2019-03-28T19:00:29.455Z,9.30
2019-03-28T19:03:00.791Z,9.30
2019-03-28T19:05:31.086Z,9.20
2019-03-28T19:08:02.048Z,9.20
2019-03-28T19:10:32.386Z,9.20
2019-03-28T19:13:05.266Z,9.10
2019-03-28T19:15:36.366Z,9.30
2019-03-28T19:18:07.183Z,9.10
2019-03-28T19:20:37.199Z,9.20
2019-03-28T19:23:07.811Z,9.00
2019-03-28T19:25:37.712Z,9.20
2019-03-28T19:28:08.451Z,9.00
2019-03-28T19:30:39.125Z,8.90
2019-03-28T19:33:09.388Z,9.00
2019-03-28T19:35:40.698Z,8.80
2019-03-28T19:38:11.284Z,8.90
2019-03-28T19:40:41.860Z,8.90
2019-03-28T19:43:20.441Z,8.70
2019-03-28T19:45:44.454Z,8.70
2019-03-28T19:48:14.368Z,8.60
2019-03-28T19:50:44.954Z,8.60
2019-03-28T19:53:15.804Z,8.50
2019-03-28T19:55:46.131Z,8.50
2019-03-28T19:58:16.029Z,8.70
2019-03-28T20:00:45.925Z,8.40
2019-03-28T20:03:16.992Z,8.40
2019-03-28T20:05:48.457Z,8.50
2019-03-28T20:08:19.509Z,8.30
2019-03-28T20:10:49.918Z,8.30
2019-03-28T20:13:20.971Z,8.20
2019-03-28T20:15:51.666Z,8.30
2019-03-28T20:18:22.580Z,8.10
2019-03-28T20:20:55.544Z,8.10
2019-03-28T20:23:25.308Z,8.10
2019-03-28T20:25:55.271Z,8.10
2019-03-28T20:28:26.930Z,8.20
2019-03-28T20:30:58.047Z,8.10
2019-03-28T20:33:28.350Z,7.80
2019-03-28T20:36:18.537Z,7.90
2019-03-28T20:38:30.418Z,7.80
2019-03-28T20:41:01.109Z,7.90
2019-03-28T20:43:31.936Z,7.80
2019-03-28T20:46:02.934Z,7.70
2019-03-28T20:48:33.933Z,7.80
2019-03-28T20:51:04.224Z,7.70
2019-03-28T20:53:34.185Z,7.70
2019-03-28T20:56:05.073Z,7.60
2019-03-28T20:58:35.052Z,7.60
2019-03-28T21:01:05.558Z,7.50
2019-03-28T21:03:35.861Z,7.60
2019-03-28T21:06:15.064Z,7.40
2019-03-28T21:08:38.642Z,7.30
2019-03-28T21:11:09.378Z,7.40
2019-03-28T21:13:39.682Z,7.50
2019-03-28T21:16:11.791Z,7.40
2019-03-28T21:18:42.350Z,7.30
2019-03-28T21:21:13.014Z,7.40
2019-03-28T21:23:43.103Z,7.20
2019-03-28T21:26:13.301Z,7.30
2019-03-28T21:28:47.444Z,7.20
2019-03-28T21:31:15.913Z,7.10
2019-03-28T21:33:46.150Z,7.10
2019-03-28T21:36:29.194Z,7.10
2019-03-28T21:38:48.550Z,7.20
2019-03-28T21:41:19.302Z,7.10
2019-03-28T21:43:50.082Z,7.00
2019-03-28T21:46:19.969Z,7.00
2019-03-28T21:48:50.265Z,7.10
2019-03-28T21:51:20.858Z,7.00
2019-03-28T21:53:50.870Z,6.90
2019-03-28T21:56:20.793Z,7.00
2019-03-28T21:58:50.906Z,7.00
2019-03-28T22:01:21.113Z,7.00
2019-03-28T22:03:51.756Z,6.90
2019-03-28T22:06:22.426Z,6.90
2019-03-28T22:08:53.476Z,6.80
2019-03-28T22:11:24.174Z,6.80
2019-03-28T22:13:55.107Z,6.90
2019-03-28T22:16:25.367Z,6.80
2019-03-28T22:18:57.006Z,6.90
2019-03-28T22:21:27.638Z,6.80
2019-03-28T22:23:57.923Z,6.90
2019-03-28T22:26:28.573Z,6.90
2019-03-28T22:28:58.893Z,6.90
2019-03-28T22:31:30.195Z,6.80
2019-03-28T22:34:00.797Z,6.70
2019-03-28T22:36:31.487Z,6.70
2019-03-28T22:39:01.913Z,6.60
2019-03-28T22:41:32.180Z,6.20
2019-03-28T22:44:02.499Z,6.20
2019-03-28T22:46:32.413Z,6.00
2019-03-28T22:49:02.341Z,6.10
2019-03-28T22:51:32.585Z,6.00
2019-03-28T22:54:03.145Z,6.20
2019-03-28T22:56:33.888Z,6.00
2019-03-28T22:59:04.540Z,6.00
2019-03-28T23:01:35.272Z,6.00
2019-03-28T23:04:05.992Z,5.80
2019-03-28T23:06:37.299Z,6.10
2019-03-28T23:09:08.396Z,6.00
2019-03-28T23:11:40.551Z,6.10
2019-03-28T23:14:10.871Z,6.10
2019-03-28T23:16:41.357Z,5.90
2019-03-28T23:19:12.142Z,6.10
2019-03-28T23:21:42.530Z,5.90
2019-03-28T23:24:13.435Z,5.90
2019-03-28T23:26:44.070Z,6.00
2019-03-28T23:29:13.953Z,5.90
2019-03-28T23:31:44.397Z,5.90
2019-03-28T23:34:15.350Z,5.80
2019-03-28T23:36:45.901Z,5.90
2019-03-28T23:39:16.891Z,5.60
2019-03-28T23:41:47.916Z,5.50
2019-03-28T23:44:18.306Z,5.60
2019-03-28T23:46:48.235Z,5.50
2019-03-28T23:49:18.235Z,5.60
2019-03-28T23:51:48.737Z,5.60
2019-03-28T23:54:18.618Z,5.50
2019-03-28T23:56:48.509Z,5.50
2019-03-28T23:59:19.633Z,5.40
